Time;durP1;ratioP1;P1;durP2;ratioP2;P2;SDS_P1;SDS_P2;PMS_P1;PMS_P2;Temp;Humidity;BMP_temperature;BMP_pressure;BME280_temperature;BME280_humidity;BME280_pressure;Samples;Min_cycle;Max_cycle;Signal;HPM_P1;HPM_P2
2021/12/10 00:01:34;;;;;;;8.80;5.82;;;9.00;86.80;;;;;;4954561;29;20107;-79
2021/12/10 00:04:01;;;;;;;10.55;6.32;;;9.00;86.80;;;;;;4955638;28;20023;-79
2021/12/10 00:06:35;;;;;;;14.25;6.18;;;9.00;86.90;;;;;;4955550;28;20023;-80
2021/12/10 00:09:09;;;;;;;12.02;6.78;;;9.00;87.50;;;;;;4958181;28;20029;-81
2021/12/10 00:11:40;;;;;;;15.40;7.88;;;9.00;87.00;;;;;;4961949;28;20057;-80
2021/12/10 00:14:07;;;;;;;15.90;8.30;;;9.00;87.10;;;;;;4960234;28;20031;-80
2021/12/10 00:16:33;;;;;;;16.95;9.13;;;9.00;87.10;;;;;;4961300;28;20098;-80
2021/12/10 00:19:15;;;;;;;15.13;8.43;;;9.00;87.10;;;;;;4959883;29;20474;-80
2021/12/10 00:21:41;;;;;;;15.68;8.00;;;9.00;87.10;;;;;;4960632;28;20019;-79
2021/12/10 00:24:09;;;;;;;15.68;8.68;;;9.00;87.20;;;;;;4959303;29;20020;-81
2021/12/10 00:26:34;;;;;;;14.57;8.40;;;9.00;87.10;;;;;;4959604;29;20031;-79
2021/12/10 00:29:03;;;;;;;14.00;8.52;;;9.00;87.10;;;;;;4960581;29;20027;-80
2021/12/10 00:34:07;;;;;;;16.92;9.18;;;9.00;87.00;;;;;;4960188;28;20066;-80
2021/12/10 00:36:36;;;;;;;15.52;7.85;;;9.00;87.10;;;;;;4959149;29;20034;-80
2021/12/10 00:39:11;;;;;;;14.93;8.43;;;9.00;87.00;;;;;;4958750;29;20019;-81
2021/12/10 00:41:37;;;;;;;15.75;9.02;;;9.00;87.00;;;;;;4958652;29;20019;-79
2021/12/10 00:44:03;;;;;;;16.23;8.88;;;9.00;87.00;;;;;;4958396;29;20019;-79
2021/12/10 00:46:29;;;;;;;16.45;8.75;;;9.00;87.10;;;;;;4959936;28;20438;-80
2021/12/10 00:48:55;;;;;;;15.65;9.30;;;9.00;87.10;;;;;;4958137;29;20538;-79
2021/12/10 00:51:20;;;;;;;16.08;9.18;;;9.00;87.10;;;;;;4959471;29;20447;-79
2021/12/10 00:53:47;;;;;;;19.23;8.73;;;9.00;87.10;;;;;;4959373;28;20569;-79
2021/12/10 00:56:13;;;;;;;16.90;8.98;;;9.00;87.10;;;;;;4958396;29;20030;-79
2021/12/10 00:58:40;;;;;;;14.85;8.88;;;9.00;87.10;;;;;;4957845;29;20020;-79
2021/12/10 01:01:09;;;;;;;16.00;8.27;;;9.00;87.10;;;;;;4957430;28;20023;-80
2021/12/10 01:03:39;;;;;;;14.15;8.20;;;9.00;87.10;;;;;;4957616;29;20019;-81
2021/12/10 01:06:09;;;;;;;15.65;8.25;;;9.00;87.10;;;;;;4958656;28;20067;-79
2021/12/10 01:08:38;;;;;;;14.85;8.73;;;9.00;87.10;;;;;;4958562;28;20019;-79
2021/12/10 01:11:20;;;;;;;15.02;8.73;;;9.00;87.00;;;;;;4957479;28;20474;-80
2021/12/10 01:13:49;;;;;;;13.27;8.07;;;9.00;87.00;;;;;;4956396;29;20108;-79
2021/12/10 01:24:51;;;;;;;14.43;8.63;;;9.00;87.00;;;;;;4958213;29;20026;-81
2021/12/10 01:27:34;;;;;;;13.98;8.98;;;9.00;87.00;;;;;;4956750;29;20110;-79
2021/12/10 01:30:23;;;;;;;11.98;7.55;;;9.00;87.00;;;;;;4956169;29;20023;-79
2021/12/10 01:32:59;;;;;;;13.88;7.65;;;9.00;87.00;;;;;;4955932;28;20375;-79
2021/12/10 01:35:30;;;;;;;14.02;8.27;;;9.00;87.00;;;;;;4956174;29;20521;-80
2021/12/10 01:37:57;;;;;;;13.90;8.02;;;9.00;87.00;;;;;;4957771;28;20023;-79
2021/12/10 01:40:25;;;;;;;12.57;8.27;;;9.00;87.00;;;;;;4956083;29;20126;-79
2021/12/10 01:42:53;;;;;;;12.40;7.70;;;9.00;87.00;;;;;;4956333;29;20027;-79
2021/12/10 01:45:30;;;;;;;12.70;8.07;;;9.00;87.00;;;;;;4957365;28;20015;-79
2021/12/10 01:48:07;;;;;;;12.23;7.22;;;9.00;86.90;;;;;;4957142;28;20026;-79
2021/12/10 01:50:34;;;;;;;12.43;7.53;;;9.00;86.90;;;;;;4955574;29;20030;-79
2021/12/10 01:53:05;;;;;;;11.00;6.75;;;9.00;87.00;;;;;;4955588;29;20023;-79
2021/12/10 01:55:36;;;;;;;10.65;7.00;;;9.00;87.00;;;;;;4955747;29;20050;-79
2021/12/10 01:58:02;;;;;;;11.50;7.07;;;9.00;86.90;;;;;;4955666;29;20058;-79
2021/12/10 02:00:30;;;;;;;10.27;6.80;;;9.00;87.00;;;;;;4955136;29;20489;-79
2021/12/10 02:02:57;;;;;;;11.43;7.07;;;9.00;86.80;;;;;;4955289;29;20386;-79
2021/12/10 02:05:23;;;;;;;10.25;6.32;;;9.00;86.90;;;;;;4955130;29;20026;-79
2021/12/10 02:07:51;;;;;;;11.25;6.82;;;9.00;87.00;;;;;;4955379;29;20030;-79
2021/12/10 02:10:19;;;;;;;9.30;6.40;;;9.00;87.00;;;;;;4954866;29;20019;-79
2021/12/10 02:12:46;;;;;;;9.43;6.20;;;9.00;87.00;;;;;;4954968;29;20034;-79
2021/12/10 02:15:13;;;;;;;10.80;6.47;;;9.00;87.00;;;;;;4957336;29;20482;-80
2021/12/10 02:17:45;;;;;;;9.27;6.15;;;9.00;86.90;;;;;;4957239;29;20027;-80
2021/12/10 02:20:16;;;;;;;9.30;6.13;;;9.00;86.90;;;;;;4957013;29;20019;-79
2021/12/10 02:22:43;;;;;;;9.20;6.20;;;9.00;86.90;;;;;;4957268;29;20035;-81
2021/12/10 02:25:10;;;;;;;8.35;5.70;;;9.00;86.90;;;;;;4957151;29;20023;-80
2021/12/10 02:27:37;;;;;;;9.00;5.68;;;9.00;86.90;;;;;;4958009;29;20031;-79
2021/12/10 02:30:07;;;;;;;9.75;6.20;;;9.00;86.90;;;;;;4956650;29;20030;-80
2021/12/10 02:32:33;;;;;;;10.57;6.10;;;9.00;86.90;;;;;;4956448;28;20035;-81
2021/12/10 02:34:58;;;;;;;11.85;5.93;;;9.00;86.90;;;;;;4957691;29;20037;-79
2021/12/10 02:37:24;;;;;;;8.90;5.78;;;9.00;86.90;;;;;;4956299;29;20019;-80
2021/12/10 02:39:50;;;;;;;12.55;6.35;;;9.00;86.90;;;;;;4956293;29;20406;-80
2021/12/10 02:42:16;;;;;;;11.40;5.75;;;9.00;87.00;;;;;;4957829;29;20051;-79
2021/12/10 02:44:41;;;;;;;9.25;5.43;;;9.00;86.90;;;;;;4958135;29;20411;-79
2021/12/10 02:47:07;;;;;;;9.32;5.65;;;9.00;86.90;;;;;;4956021;29;20038;-80
2021/12/10 02:49:33;;;;;;;9.75;6.07;;;9.00;86.90;;;;;;4957221;29;20048;-80
2021/12/10 02:51:59;;;;;;;8.00;5.18;;;9.00;86.90;;;;;;4955792;29;20117;-81
2021/12/10 02:54:33;;;;;;;9.20;5.22;;;9.00;86.90;;;;;;4955846;29;20105;-79
2021/12/10 02:57:02;;;;;;;11.25;5.45;;;9.00;86.90;;;;;;4955604;29;20026;-79
2021/12/10 02:59:28;;;;;;;8.10;5.18;;;9.00;86.90;;;;;;4954962;29;20023;-79
2021/12/10 03:01:54;;;;;;;9.77;5.35;;;9.00;86.90;;;;;;4956917;29;20026;-80
2021/12/10 03:04:19;;;;;;;8.63;5.00;;;9.00;86.90;;;;;;4955555;29;20019;-81
2021/12/10 03:06:49;;;;;;;8.52;5.15;;;9.00;86.90;;;;;;4955070;29;20090;-79
2021/12/10 03:09:17;;;;;;;9.90;5.25;;;9.00;86.90;;;;;;4954793;29;20019;-79
2021/12/10 03:11:46;;;;;;;8.85;4.90;;;9.00;86.90;;;;;;4954913;29;20051;-80
2021/12/10 03:14:12;;;;;;;8.30;5.43;;;9.00;86.90;;;;;;4956456;28;20475;-79
2021/12/10 03:16:40;;;;;;;8.23;4.90;;;9.00;87.00;;;;;;4954941;29;20498;-81
2021/12/10 03:19:06;;;;;;;7.32;4.82;;;9.00;87.00;;;;;;4955970;29;20031;-79
2021/12/10 03:21:33;;;;;;;8.25;4.93;;;8.90;86.90;;;;;;4954703;29;20026;-79
2021/12/10 03:24:00;;;;;;;7.10;4.60;;;9.00;87.00;;;;;;4950706;29;20027;-79
2021/12/10 03:26:26;;;;;;;9.00;4.60;;;9.00;87.00;;;;;;4935276;29;20032;-79
2021/12/10 03:28:53;;;;;;;8.25;4.97;;;9.00;87.00;;;;;;4936464;29;20038;-80
2021/12/10 03:31:21;;;;;;;7.60;4.88;;;9.00;87.10;;;;;;4936649;29;20383;-80
2021/12/10 05:39:14;;;;;;;27.53;18.33;;;9.00;87.30;;;;;;4942228;28;20108;-80
2021/12/10 09:33:56;;;;;;;10.98;6.05;;;9.70;84.20;;;;;;4131188;23;21692;-83
2021/12/10 09:36:22;;;;;;;10.93;5.85;;;9.70;83.90;;;;;;4899342;29;20040;-75
2021/12/10 09:38:48;;;;;;;9.45;5.75;;;9.70;83.90;;;;;;4916474;29;20027;-75
2021/12/10 09:41:15;;;;;;;10.23;5.75;;;9.80;83.80;;;;;;4915800;29;20394;-76
2021/12/10 09:43:41;;;;;;;9.45;5.50;;;9.70;83.60;;;;;;4917927;29;20033;-74
2021/12/10 09:46:09;;;;;;;10.82;5.35;;;9.70;83.50;;;;;;4917887;29;20087;-74
2021/12/10 09:48:35;;;;;;;8.73;5.57;;;9.80;83.50;;;;;;4917695;29;20370;-75
2021/12/10 09:51:10;;;;;;;9.50;5.72;;;9.70;83.50;;;;;;4917517;29;20522;-74
2021/12/10 09:53:37;;;;;;;9.90;5.65;;;9.80;83.50;;;;;;4916377;29;20120;-75
2021/12/10 09:56:03;;;;;;;9.55;5.82;;;9.80;83.40;;;;;;4917568;29;20028;-76
2021/12/10 09:58:29;;;;;;;9.70;5.20;;;9.80;83.30;;;;;;4917659;29;20397;-75
2021/12/10 10:01:05;;;;;;;9.25;5.68;;;9.80;83.10;;;;;;4916090;29;20028;-75
2021/12/10 10:03:37;;;;;;;9.32;5.63;;;9.90;82.90;;;;;;4916231;29;20024;-76
2021/12/10 10:06:04;;;;;;;9.70;4.90;;;9.90;82.80;;;;;;4917969;29;20016;-76
2021/12/10 10:08:32;;;;;;;10.63;5.35;;;9.90;82.80;;;;;;4916290;29;20087;-74
2021/12/10 10:11:06;;;;;;;9.25;5.03;;;9.90;82.70;;;;;;4917185;29;20503;-75
2021/12/10 10:13:35;;;;;;;9.07;4.97;;;9.90;82.60;;;;;;4916129;29;20123;-74
2021/12/10 10:16:02;;;;;;;8.80;5.07;;;10.00;82.80;;;;;;4916082;29;20036;-75
2021/12/10 10:18:30;;;;;;;8.02;5.13;;;10.00;83.00;;;;;;4916923;29;20024;-74
2021/12/10 10:21:01;;;;;;;9.65;4.85;;;9.90;82.60;;;;;;4915766;29;20488;-76
2021/12/10 10:23:29;;;;;;;9.07;4.88;;;10.00;82.90;;;;;;4915899;29;20123;-76
2021/12/10 10:26:03;;;;;;;8.38;4.90;;;9.90;82.60;;;;;;4915646;29;20039;-76
2021/12/10 10:28:29;;;;;;;10.38;5.20;;;10.00;82.20;;;;;;4917002;29;20036;-76
2021/12/10 10:31:01;;;;;;;7.97;4.70;;;10.00;82.10;;;;;;4915420;29;20028;-77
2021/12/10 10:33:31;;;;;;;8.82;4.95;;;10.00;82.00;;;;;;4915729;29;20047;-78
2021/12/10 10:35:59;;;;;;;8.10;4.20;;;10.00;82.00;;;;;;4915670;29;20055;-78
2021/12/10 10:38:26;;;;;;;9.02;4.70;;;10.00;82.30;;;;;;4915668;29;20028;-76
2021/12/10 10:40:58;;;;;;;9.07;4.93;;;10.00;81.90;;;;;;4915425;29;20076;-75
2021/12/10 10:43:25;;;;;;;8.48;4.53;;;10.10;81.70;;;;;;4916628;29;20088;-75
2021/12/10 10:45:51;;;;;;;8.50;4.50;;;10.10;81.70;;;;;;4915417;29;20081;-76
2021/12/10 10:48:18;;;;;;;8.65;4.95;;;10.10;81.90;;;;;;4915462;29;20035;-74
2021/12/10 10:50:59;;;;;;;11.30;4.80;;;10.10;82.30;;;;;;4915382;29;20028;-76
2021/12/10 10:53:27;;;;;;;;;;;10.10;81.80;;;;;;4916000;29;20024;-75
2021/12/10 10:56:07;;;;;;;8.93;4.63;;;10.20;81.90;;;;;;4899440;29;19953;-74
2021/12/10 10:58:36;;;;;;;11.48;5.68;;;10.10;81.70;;;;;;4915210;29;20028;-75
2021/12/10 11:01:24;;;;;;;9.40;4.55;;;10.20;81.80;;;;;;4916150;29;20024;-76
2021/12/10 11:04:17;;;;;;;8.25;4.78;;;10.20;81.60;;;;;;4916392;29;20039;-75
2021/12/10 11:06:47;;;;;;;9.27;4.75;;;10.20;81.40;;;;;;4916444;29;20032;-75
2021/12/10 11:09:20;;;;;;;8.45;4.32;;;10.30;81.40;;;;;;4914772;29;20500;-75
2021/12/10 11:11:50;;;;;;;8.32;4.40;;;10.30;81.30;;;;;;4915023;29;20385;-74
2021/12/10 11:14:41;;;;;;;8.65;4.40;;;10.40;81.10;;;;;;4914950;29;20028;-75
2021/12/10 11:17:10;;;;;;;8.35;4.40;;;10.40;81.00;;;;;;4914799;29;20036;-76
2021/12/10 11:19:36;;;;;;;9.15;4.40;;;10.40;80.90;;;;;;4898901;29;20119;-74
2021/12/10 11:22:11;;;;;;;8.45;4.60;;;10.40;81.00;;;;;;4916190;29;20119;-76
2021/12/10 11:24:46;;;;;;;10.35;4.45;;;10.40;80.90;;;;;;4915472;29;20036;-74
2021/12/10 11:27:31;;;;;;;8.10;4.10;;;10.40;80.90;;;;;;4914834;29;20400;-75
2021/12/10 11:30:16;;;;;;;7.70;4.43;;;10.40;81.00;;;;;;4915788;29;20024;-74
2021/12/10 11:32:50;;;;;;;8.57;4.50;;;10.40;81.20;;;;;;4915777;29;20046;-76
2021/12/10 11:35:47;;;;;;;8.95;3.90;;;10.30;81.20;;;;;;4914871;29;20292;-74
2021/12/10 11:38:19;;;;;;;7.72;4.03;;;10.30;81.30;;;;;;4914644;29;20024;-75
2021/12/10 11:40:58;;;;;;;7.43;4.13;;;10.30;81.20;;;;;;4914431;29;20024;-75
2021/12/10 11:49:00;;;;;;;9.32;3.80;;;10.20;81.70;;;;;;4915603;29;20119;-75
2021/12/10 11:51:28;;;;;;;7.60;4.03;;;10.20;81.90;;;;;;4915754;29;20574;-74
2021/12/10 11:54:01;;;;;;;6.88;3.53;;;10.10;82.00;;;;;;4914332;29;20484;-74
2021/12/10 11:56:29;;;;;;;7.47;3.65;;;10.10;82.10;;;;;;4915679;29;20058;-76
2021/12/10 11:58:57;;;;;;;7.13;3.72;;;10.10;82.20;;;;;;4914250;29;20032;-74
2021/12/10 12:01:23;;;;;;;7.70;3.75;;;10.10;82.20;;;;;;4898636;29;20415;-76
2021/12/10 12:03:49;;;;;;;9.13;3.80;;;10.10;82.20;;;;;;4914487;29;20024;-75
2021/12/10 12:06:18;;;;;;;7.53;3.50;;;10.10;82.10;;;;;;4917801;29;20059;-74
2021/12/10 12:08:44;;;;;;;7.10;3.28;;;10.20;82.10;;;;;;4919503;29;20031;-75
2021/12/10 12:11:11;;;;;;;7.10;3.63;;;10.10;82.10;;;;;;4919275;29;20028;-74
2021/12/10 12:13:41;;;;;;;7.55;3.75;;;10.10;82.20;;;;;;4918098;29;20027;-74
2021/12/10 12:16:16;;;;;;;8.05;3.83;;;10.10;82.30;;;;;;4918241;29;20028;-74
2021/12/10 12:18:47;;;;;;;6.65;3.25;;;10.10;82.40;;;;;;4918277;29;20292;-74
2021/12/10 12:27:18;;;;;;;7.05;3.17;;;10.20;82.20;;;;;;4919648;29;20071;-74
2021/12/10 12:29:55;;;;;;;7.18;3.38;;;10.20;82.00;;;;;;4919004;29;20032;-74
2021/12/10 12:32:24;;;;;;;6.90;3.33;;;10.20;82.00;;;;;;4917943;29;20095;-78
2021/12/10 12:34:50;;;;;;;7.50;3.60;;;10.20;82.00;;;;;;4918947;29;20031;-76
2021/12/10 12:37:19;;;;;;;7.15;2.95;;;10.20;82.00;;;;;;4917766;29;20064;-76
2021/12/10 12:39:55;;;;;;;7.18;3.25;;;10.20;82.00;;;;;;4917460;29;20020;-75
2021/12/10 12:42:37;;;;;;;5.47;2.65;;;10.20;82.00;;;;;;4918916;29;20031;-77
2021/12/10 12:45:08;;;;;;;7.15;3.17;;;10.20;82.00;;;;;;4917742;29;20436;-76
2021/12/10 12:47:47;;;;;;;7.03;3.13;;;10.30;82.00;;;;;;4919387;29;20071;-75
2021/12/10 12:50:25;;;;;;;7.53;2.90;;;10.20;81.90;;;;;;4918562;29;20037;-76
2021/12/10 12:52:56;;;;;;;7.43;2.60;;;10.30;81.90;;;;;;4918725;29;20028;-76
2021/12/10 12:55:57;;;;;;;5.57;2.47;;;10.30;81.90;;;;;;4918761;29;20408;-77
2021/12/10 12:58:37;;;;;;;6.78;2.42;;;10.30;81.90;;;;;;4917497;29;20025;-74
2021/12/10 13:01:21;;;;;;;7.05;2.80;;;10.30;81.90;;;;;;4901634;29;20122;-77
2021/12/10 13:03:55;;;;;;;6.85;2.47;;;10.20;82.00;;;;;;4901511;29;20115;-78
2021/12/10 13:06:30;;;;;;;7.03;2.70;;;10.20;82.10;;;;;;4901499;29;20044;-78
2021/12/10 13:09:15;;;;;;;6.53;2.75;;;10.20;82.20;;;;;;4917056;29;20448;-75
2021/12/10 13:11:56;;;;;;;6.82;2.45;;;10.20;82.50;;;;;;4918419;29;20107;-76
2021/12/10 13:14:31;;;;;;;6.88;2.70;;;10.10;82.60;;;;;;4918395;29;20075;-76
2021/12/10 13:17:12;;;;;;;6.55;2.60;;;10.10;82.90;;;;;;4916042;29;20404;-74
2021/12/10 13:19:38;;;;;;;5.70;2.40;;;10.00;83.00;;;;;;4917029;29;20461;-74
2021/12/10 13:22:11;;;;;;;5.05;2.30;;;10.00;83.20;;;;;;4917042;29;20123;-76
2021/12/10 13:24:40;;;;;;;6.28;2.58;;;10.00;83.40;;;;;;4916443;29;20468;-74
2021/12/10 13:27:08;;;;;;;5.57;2.20;;;9.90;83.60;;;;;;4916781;29;20027;-76
2021/12/10 13:29:35;;;;;;;5.80;2.42;;;9.90;83.70;;;;;;4916863;29;20131;-74
2021/12/10 13:32:02;;;;;;;5.72;2.25;;;9.90;83.80;;;;;;4916862;29;20054;-74
2021/12/10 13:34:28;;;;;;;6.38;2.33;;;9.90;84.00;;;;;;4917812;29;20518;-76
2021/12/10 13:36:54;;;;;;;5.53;2.15;;;9.90;84.10;;;;;;4917913;29;20032;-75
2021/12/10 13:39:20;;;;;;;6.10;2.50;;;9.90;84.10;;;;;;4917695;29;20492;-74
2021/12/10 13:41:46;;;;;;;5.45;2.08;;;9.90;84.10;;;;;;4917849;29;20031;-74
2021/12/10 13:46:56;;;;;;;6.25;2.17;;;9.90;84.30;;;;;;4917850;29;20368;-75
2021/12/10 13:49:22;;;;;;;6.28;2.20;;;9.90;84.30;;;;;;4917480;29;20395;-74
2021/12/10 13:51:53;;;;;;;7.03;2.10;;;9.80;84.30;;;;;;4920818;29;20038;-74
2021/12/10 13:54:22;;;;;;;6.43;2.45;;;9.80;84.30;;;;;;4916486;29;20032;-76
2021/12/10 13:56:55;;;;;;;5.63;2.20;;;9.80;84.40;;;;;;4916422;29;20499;-75
2021/12/10 13:59:24;;;;;;;6.90;2.10;;;9.80;84.50;;;;;;4917354;29;20392;-76
2021/12/10 14:01:53;;;;;;;5.90;2.50;;;9.80;84.60;;;;;;4917478;29;20518;-77
2021/12/10 14:04:47;;;;;;;5.53;2.10;;;9.80;84.60;;;;;;4917350;29;20107;-76
2021/12/10 14:07:20;;;;;;;8.77;2.28;;;9.80;84.70;;;;;;4898172;29;20511;-76
2021/12/10 14:09:51;;;;;;;6.57;2.05;;;9.80;84.80;;;;;;4917171;29;20110;-74
2021/12/10 14:12:40;;;;;;;5.38;2.20;;;9.80;84.70;;;;;;4917593;29;20024;-75
2021/12/10 14:15:41;;;;;;;5.22;1.88;;;9.70;84.70;;;;;;4916041;29;20503;-74
2021/12/10 14:18:11;;;;;;;6.32;2.28;;;9.70;84.80;;;;;;4917225;29;20032;-76
2021/12/10 14:20:51;;;;;;;6.47;2.22;;;9.70;84.90;;;;;;4916910;29;20016;-74
2021/12/10 14:23:26;;;;;;;6.63;2.00;;;9.70;85.00;;;;;;4917331;29;20024;-75
2021/12/10 14:25:56;;;;;;;5.57;2.20;;;9.70;85.10;;;;;;4916736;29;20028;-75
2021/12/10 14:28:42;;;;;;;6.65;2.20;;;9.70;85.10;;;;;;4916940;29;20020;-75
2021/12/10 14:31:33;;;;;;;7.60;2.28;;;9.70;85.20;;;;;;4915539;29;20403;-74
2021/12/10 14:34:05;;;;;;;;;;;9.70;85.20;;;;;;4917329;29;20054;-74
2021/12/10 14:36:30;;;;;;;5.63;2.00;;;9.70;85.00;;;;;;4917032;29;19914;-74
2021/12/10 14:39:02;;;;;;;4.82;1.98;;;9.70;84.80;;;;;;4915364;29;20020;-74
2021/12/10 14:41:33;;;;;;;7.10;2.10;;;9.70;84.50;;;;;;4916969;29;20527;-75
2021/12/10 14:44:01;;;;;;;4.78;1.80;;;9.60;84.30;;;;;;4916821;29;20047;-74
2021/12/10 14:46:43;;;;;;;6.47;2.05;;;9.50;84.30;;;;;;4916730;29;20485;-75
2021/12/10 14:49:20;;;;;;;7.15;1.77;;;9.60;84.30;;;;;;4916401;29;20032;-74
2021/12/10 14:52:10;;;;;;;6.25;2.03;;;9.60;84.30;;;;;;4916676;29;20096;-74
2021/12/10 14:54:56;;;;;;;7.53;2.10;;;9.60;84.20;;;;;;4916384;29;20492;-74
2021/12/10 14:57:52;;;;;;;5.40;1.95;;;9.60;84.20;;;;;;4915163;29;20032;-74
2021/12/10 15:00:27;;;;;;;7.57;1.90;;;9.60;84.20;;;;;;4916269;29;20119;-74
2021/12/10 15:03:21;;;;;;;5.28;2.00;;;9.60;84.10;;;;;;4899294;29;20028;-75
2021/12/10 15:05:59;;;;;;;6.95;2.17;;;9.60;84.00;;;;;;4915674;29;20024;-75
2021/12/10 15:08:53;;;;;;;7.57;2.10;;;9.50;83.50;;;;;;4885728;29;20457;-75
2021/12/10 15:11:30;;;;;;;5.85;2.00;;;9.50;83.40;;;;;;4912544;29;20508;-75
2021/12/10 15:14:10;;;;;;;7.05;1.75;;;9.50;83.80;;;;;;4899113;29;20494;-74
2021/12/10 15:16:40;;;;;;;6.55;2.20;;;9.60;83.70;;;;;;4897599;29;20027;-76
2021/12/10 15:19:09;;;;;;;6.80;2.20;;;9.60;84.10;;;;;;4913319;29;20484;-75
2021/12/10 15:21:37;;;;;;;6.00;1.95;;;9.60;84.20;;;;;;4914471;29;20415;-76
2021/12/10 15:24:34;;;;;;;8.20;2.00;;;9.60;84.30;;;;;;4915062;29;20028;-75
2021/12/10 15:27:12;;;;;;;5.85;1.95;;;9.50;84.50;;;;;;4898961;29;20140;-77
2021/12/10 15:29:38;;;;;;;7.47;2.22;;;9.50;84.70;;;;;;4915593;29;20046;-74
2021/12/10 15:32:12;;;;;;;8.70;2.10;;;9.50;84.80;;;;;;4912134;29;20781;-75
2021/12/10 15:34:45;;;;;;;7.53;2.03;;;9.50;84.20;;;;;;4914532;29;20039;-75
2021/12/10 15:37:14;;;;;;;7.65;2.15;;;9.50;83.90;;;;;;4888168;29;20028;-75
2021/12/10 15:39:43;;;;;;;5.93;2.05;;;9.50;84.20;;;;;;4896223;29;20029;-74
2021/12/10 15:42:10;;;;;;;4.78;1.73;;;9.50;84.10;;;;;;4896229;29;20076;-76
2021/12/10 15:44:41;;;;;;;5.38;1.88;;;9.50;84.10;;;;;;4893827;29;20480;-76
2021/12/10 15:47:09;;;;;;;7.82;1.90;;;9.50;84.10;;;;;;4896418;29;20028;-75
2021/12/10 15:49:35;;;;;;;6.68;2.60;;;9.60;84.10;;;;;;4894873;29;20035;-74
2021/12/10 15:52:06;;;;;;;6.45;1.83;;;9.50;84.50;;;;;;4896312;29;20116;-74
2021/12/10 15:54:40;;;;;;;6.83;2.30;;;9.60;84.00;;;;;;4895017;29;20033;-74
2021/12/10 15:57:14;;;;;;;5.22;1.85;;;9.50;83.90;;;;;;4895119;29;20080;-76
2021/12/10 15:59:44;;;;;;;5.65;2.10;;;9.60;84.00;;;;;;4896268;29;20251;-77
2021/12/10 16:02:11;;;;;;;6.47;2.22;;;9.60;84.00;;;;;;4896754;29;20029;-77
2021/12/10 16:04:44;;;;;;;7.10;2.45;;;9.60;84.00;;;;;;4894962;29;20020;-76
2021/12/10 16:07:26;;;;;;;6.78;2.10;;;9.60;84.00;;;;;;4896114;29;20040;-76
2021/12/10 16:10:15;;;;;;;6.60;2.05;;;9.60;84.10;;;;;;4894717;29;20056;-78
2021/12/10 16:12:42;;;;;;;5.68;1.92;;;9.60;84.00;;;;;;4896037;29;20025;-74
2021/12/10 16:15:23;;;;;;;7.63;2.20;;;9.60;84.10;;;;;;4895361;29;20032;-75
2021/12/10 16:17:52;;;;;;;5.65;2.10;;;9.60;84.10;;;;;;4896654;29;20029;-74
2021/12/10 16:20:24;;;;;;;5.22;2.25;;;9.60;84.20;;;;;;4896423;29;20021;-74
2021/12/10 16:22:50;;;;;;;5.82;2.58;;;9.60;84.20;;;;;;4895744;29;20067;-76
2021/12/10 16:25:16;;;;;;;9.35;2.45;;;9.50;84.40;;;;;;4895696;29;20083;-75
2021/12/10 16:27:44;;;;;;;6.20;2.42;;;9.60;84.50;;;;;;4895060;29;20028;-75
2021/12/10 16:30:30;;;;;;;7.50;2.75;;;9.60;84.20;;;;;;4907869;29;20060;-75
2021/12/10 16:32:58;;;;;;;5.57;2.55;;;9.60;84.20;;;;;;4896480;29;20043;-76
2021/12/10 16:35:34;;;;;;;9.55;2.90;;;9.50;84.00;;;;;;4888734;29;20032;-75
2021/12/10 16:38:04;;;;;;;7.22;2.83;;;9.50;83.90;;;;;;4914957;29;20040;-76
2021/12/10 16:40:36;;;;;;;7.07;3.08;;;9.60;84.00;;;;;;4914820;29;20036;-77
2021/12/10 16:43:18;;;;;;;9.20;3.17;;;9.60;83.90;;;;;;4898012;29;20028;-75
2021/12/10 16:45:46;;;;;;;7.03;2.88;;;9.50;83.90;;;;;;4898750;29;20115;-73
2021/12/10 16:48:28;;;;;;;6.38;3.22;;;9.50;84.00;;;;;;4898503;29;20038;-74
2021/12/10 16:50:57;;;;;;;7.53;3.63;;;9.50;84.50;;;;;;4915036;29;20032;-74
2021/12/10 16:53:37;;;;;;;8.20;3.10;;;9.50;84.30;;;;;;4901761;29;20032;-77
2021/12/10 16:56:06;;;;;;;8.65;3.63;;;9.50;84.40;;;;;;4902343;29;20028;-73
2021/12/10 16:58:33;;;;;;;8.45;3.20;;;9.50;84.80;;;;;;4902047;29;20448;-76
2021/12/10 17:01:13;;;;;;;9.88;3.40;;;9.40;85.20;;;;;;4902078;29;20515;-74
2021/12/10 17:03:39;;;;;;;7.80;3.50;;;9.40;85.60;;;;;;4901999;29;20027;-74
2021/12/10 17:06:09;;;;;;;8.85;3.95;;;9.40;85.80;;;;;;4902160;29;20024;-74
2021/12/10 17:08:37;;;;;;;9.48;3.70;;;9.40;86.50;;;;;;4918965;29;20514;-74
2021/12/10 17:11:08;;;;;;;10.23;3.72;;;9.30;86.10;;;;;;4918825;29;20039;-74
2021/12/10 17:13:42;;;;;;;8.63;4.07;;;9.30;86.10;;;;;;4903190;29;20035;-73
2021/12/10 17:16:33;;;;;;;10.27;3.97;;;9.30;86.20;;;;;;4904105;29;20425;-74
2021/12/10 17:19:01;;;;;;;12.85;4.20;;;9.30;86.30;;;;;;4917202;29;20451;-74
2021/12/10 17:21:35;;;;;;;10.10;4.28;;;9.30;86.30;;;;;;4901791;29;20028;-76
2021/12/10 17:24:04;;;;;;;9.55;4.22;;;9.30;86.90;;;;;;4917809;29;20028;-76
2021/12/10 17:26:32;;;;;;;8.98;4.43;;;9.30;86.40;;;;;;4901733;29;20029;-75
2021/12/10 17:29:04;;;;;;;8.13;4.75;;;9.30;86.30;;;;;;4918683;29;20031;-75
2021/12/10 17:31:34;;;;;;;9.85;5.00;;;9.30;86.30;;;;;;4918611;29;20020;-75
2021/12/10 17:34:05;;;;;;;10.77;5.70;;;9.30;86.30;;;;;;4901520;29;20028;-75
2021/12/10 17:36:53;;;;;;;9.80;5.60;;;9.30;86.30;;;;;;4901448;29;20032;-74
2021/12/10 17:39:23;;;;;;;13.50;6.32;;;9.30;86.30;;;;;;4901027;29;20040;-74
2021/12/10 17:41:51;;;;;;;11.75;6.38;;;9.30;86.30;;;;;;4901470;29;20024;-75
2021/12/10 17:44:17;;;;;;;11.20;6.30;;;9.30;86.40;;;;;;4901480;29;20024;-75
2021/12/10 17:46:49;;;;;;;12.32;6.72;;;9.30;86.40;;;;;;4917149;29;20024;-75
2021/12/10 17:49:21;;;;;;;11.18;6.25;;;9.30;86.40;;;;;;4918040;29;20025;-75
2021/12/10 17:51:52;;;;;;;12.38;6.85;;;9.30;86.30;;;;;;4917044;29;20453;-74
2021/12/10 17:54:22;;;;;;;11.32;6.35;;;9.30;86.40;;;;;;4917733;29;20034;-75
2021/12/10 17:56:51;;;;;;;11.23;6.55;;;9.30;86.30;;;;;;4901086;29;20492;-74
2021/12/10 17:59:19;;;;;;;13.45;7.50;;;9.30;86.20;;;;;;4918315;29;20107;-74
2021/12/10 18:01:55;;;;;;;12.15;6.97;;;9.30;86.20;;;;;;4914030;29;20473;-73
2021/12/10 18:04:22;;;;;;;12.07;7.00;;;9.30;86.20;;;;;;4900534;29;20496;-72
2021/12/10 18:06:57;;;;;;;11.02;6.57;;;9.30;86.30;;;;;;4917973;29;20511;-73
2021/12/10 18:09:29;;;;;;;10.88;7.40;;;9.30;86.30;;;;;;4900465;29;20155;-74
2021/12/10 18:12:02;;;;;;;10.07;6.68;;;9.30;86.30;;;;;;4901117;29;20028;-75
2021/12/10 18:14:44;;;;;;;11.57;6.95;;;9.30;86.30;;;;;;4917765;29;20024;-73
2021/12/10 18:17:17;;;;;;;11.82;6.68;;;9.30;86.20;;;;;;4900747;29;20088;-73
2021/12/10 18:19:48;;;;;;;10.57;6.43;;;9.30;86.20;;;;;;4917312;29;20115;-74
2021/12/10 18:22:18;;;;;;;13.85;6.90;;;9.30;86.30;;;;;;4900775;29;20503;-74
2021/12/10 18:24:50;;;;;;;13.10;7.45;;;9.30;86.20;;;;;;4900559;29;20024;-74
2021/12/10 18:27:18;;;;;;;10.13;6.38;;;9.30;86.20;;;;;;4917596;29;20020;-73
2021/12/10 18:29:45;;;;;;;12.02;6.82;;;9.30;86.30;;;;;;4900421;29;20028;-74
2021/12/10 18:32:21;;;;;;;11.65;6.70;;;9.30;86.30;;;;;;4899794;29;20043;-74
2021/12/10 18:34:49;;;;;;;10.50;6.82;;;9.30;86.30;;;;;;4916734;29;20032;-74
2021/12/10 18:37:22;;;;;;;12.10;6.70;;;9.30;86.40;;;;;;4899944;29;20138;-73
2021/12/10 18:40:01;;;;;;;10.38;6.78;;;9.30;86.40;;;;;;4899762;29;20034;-74
2021/12/10 18:42:40;;;;;;;11.38;6.50;;;9.30;86.40;;;;;;4899931;29;20035;-75
2021/12/10 18:45:16;;;;;;;29.27;7.75;;;9.30;86.40;;;;;;4916886;29;20024;-74
2021/12/10 18:47:43;;;;;;;21.63;7.20;;;9.30;86.60;;;;;;4899705;29;20118;-77
2021/12/10 18:50:19;;;;;;;13.32;6.38;;;9.40;86.50;;;;;;4899388;29;20488;-74
2021/12/10 18:52:46;;;;;;;19.98;6.97;;;9.40;86.20;;;;;;4916452;29;20036;-75
2021/12/10 18:55:15;;;;;;;28.33;7.18;;;9.40;86.50;;;;;;4916785;29;20080;-74
2021/12/10 18:57:41;;;;;;;18.55;6.88;;;9.40;86.30;;;;;;4899591;29;20039;-75
2021/12/10 19:00:25;;;;;;;20.40;6.93;;;9.40;86.60;;;;;;4899715;29;20025;-76
2021/12/10 19:02:54;;;;;;;16.60;7.00;;;9.50;86.30;;;;;;4916522;29;20028;-75
2021/12/10 19:05:29;;;;;;;16.83;6.97;;;9.50;86.60;;;;;;4899742;29;20033;-75
2021/12/10 19:08:00;;;;;;;14.50;6.93;;;9.50;86.40;;;;;;4916370;29;20455;-74
2021/12/10 19:10:35;;;;;;;15.57;7.13;;;9.50;86.40;;;;;;4911789;29;20033;-74
2021/12/10 19:13:26;;;;;;;14.25;6.78;;;9.60;86.70;;;;;;4899400;29;20043;-75
2021/12/10 19:16:01;;;;;;;18.65;7.22;;;9.60;86.80;;;;;;4898695;29;20032;-74
2021/12/10 19:18:38;;;;;;;18.13;6.90;;;9.60;87.30;;;;;;4899215;29;20028;-73
2021/12/10 19:21:23;;;;;;;19.20;7.03;;;9.70;87.70;;;;;;4899032;29;20024;-74
2021/12/10 19:24:00;;;;;;;14.30;6.82;;;9.70;87.90;;;;;;4898753;29;20040;-75
2021/12/10 19:26:30;;;;;;;14.70;6.95;;;9.70;88.20;;;;;;4899345;29;20024;-75
2021/12/10 19:29:08;;;;;;;15.07;6.47;;;9.70;88.50;;;;;;4886777;29;20031;-73
2021/12/10 19:31:43;;;;;;;16.13;6.65;;;9.80;88.50;;;;;;4880320;29;20103;-73
2021/12/10 19:34:32;;;;;;;13.73;7.05;;;9.80;88.70;;;;;;4880191;29;20028;-75
2021/12/10 19:37:15;;;;;;;16.10;7.32;;;9.90;88.60;;;;;;4895527;29;20627;-75
2021/12/10 19:39:44;;;;;;;12.57;7.28;;;9.90;88.10;;;;;;4880175;29;20033;-75